Bookmark and Share
Track history (hours):
 

Grand Mercury

Last reported at 2014-Apr-08 22:32 UTC. Time now 2014-Apr-20 21:10 UTC.
Position N 01°14' E 103°27'.
Warning: this ship's position is 11 days out of date.

Length 200 m; draft 8.8 m.

Type: Cargo ship. MMSI: 355649000.

NotesDate/timePositionNaut miles runAvg speedWind from/ knotsBaromVisibWave heightAir tempDewpointWater temp
2014-Apr-08 22:32N 01°14' E 103°27'1615.8
2014-Apr-08 21:33N 01°10' E 103°41'10 9.9
2014-Apr-08 20:33N 01°12' E 103°51'5 3.5
2014-Apr-08 19:08N 01°16' E 103°54'2 0.1
2014-Apr-07 15:26N 01°14' E 103°53'6 6.6
2014-Apr-07 14:33N 01°14' E 103°47'4 3.9
2014-Apr-07 13:31N 01°17' E 103°45'0 0.0
2014-Apr-07 12:31N 01°17' E 103°45'0 0.0
2014-Apr-07 11:31N 01°17' E 103°45'0 0.0
2014-Apr-07 10:33N 01°17' E 103°45'0 0.0
2014-Apr-07 09:33N 01°17' E 103°45'1 0.5
2014-Apr-07 08:33N 01°16' E 103°45'4 4.1
2014-Apr-07 07:33N 01°13' E 103°48'6 5.0
2014-Apr-07 06:20N 01°15' E 103°54'0 0.0
2014-Apr-07 05:32N 01°15' E 103°54'0 0.4
2014-Apr-07 04:27N 01°14' E 103°54'2 2.1
2014-Apr-07 03:32N 01°14' E 103°56'  
2014-Mar-30 11:11N 33°54' E 134°58'1118.2
2014-Mar-30 10:33N 34°05' E 134°58'1616.1
2014-Mar-30 09:33N 34°21' E 134°59'1313.2
2014-Mar-30 08:34N 34°33' E 135°06'1010.0
2014-Mar-30 07:33N 34°35' E 134°55'  

Dump ship's entire track history

sailing weather and tide predictions

Grand Mercury — HOOC — position and weather